createdAt,value
2023-02-15T00:00:36.214Z,1.8
2023-02-15T00:02:01.927Z,1.8
2023-02-15T00:02:38.650Z,1.7
2023-02-15T00:03:54.554Z,1.6
2023-02-15T00:04:37.131Z,1.6
2023-02-15T00:05:54.413Z,1.8
2023-02-15T00:06:36.626Z,1.8
2023-02-15T00:07:54.904Z,1.6
2023-02-15T00:08:36.789Z,1.6
2023-02-15T00:09:54.835Z,1.7
2023-02-15T00:11:05.467Z,1.7
2023-02-15T00:12:04.200Z,1.8
2023-02-15T00:12:37.074Z,1.8
2023-02-15T00:14:06.371Z,1.9
2023-02-15T00:14:37.216Z,1.8
2023-02-15T00:15:37.338Z,1.7
2023-02-15T00:17:06.008Z,1.7
2023-02-15T00:17:37.514Z,1.7
2023-02-15T00:18:37.541Z,1.9
2023-02-15T00:20:05.669Z,1.8
2023-02-15T00:20:37.734Z,1.7
2023-02-15T00:21:42.312Z,1.6
2023-02-15T00:23:11.135Z,1.7
2023-02-15T00:23:37.882Z,1.6
2023-02-15T00:24:37.938Z,1.5
2023-02-15T00:26:06.020Z,1.4
2023-02-15T00:26:38.066Z,1.4
2023-02-15T00:27:38.137Z,1.5
2023-02-15T00:29:10.476Z,1.5
2023-02-15T00:29:38.217Z,1.5
2023-02-15T00:30:38.328Z,1.5
2023-02-15T00:31:42.902Z,1.4
2023-02-15T00:32:40.915Z,1.4
2023-02-15T00:33:43.354Z,1.4
2023-02-15T00:34:38.384Z,1.4
2023-02-15T00:35:38.456Z,1.4
2023-02-15T00:36:38.508Z,1.5
2023-02-15T00:37:38.790Z,1.4
2023-02-15T00:38:38.707Z,1.5
2023-02-15T00:39:38.710Z,1.5
2023-02-15T00:40:38.729Z,1.5
2023-02-15T00:41:38.828Z,1.5
2023-02-15T00:42:38.892Z,1.4
2023-02-15T00:43:38.942Z,1.3
2023-02-15T00:44:39.353Z,1.3
2023-02-15T00:45:39.130Z,1.1
2023-02-15T00:46:39.153Z,1.3
2023-02-15T00:47:39.291Z,1.3
2023-02-15T00:48:39.335Z,1.3
2023-02-15T00:49:39.398Z,1.4
2023-02-15T00:50:39.443Z,1.4
2023-02-15T00:51:44.627Z,1.3
2023-02-15T00:52:39.598Z,1.3
2023-02-15T00:53:39.682Z,1.4
2023-02-15T00:54:39.788Z,1.5
2023-02-15T00:55:39.794Z,1.4
2023-02-15T00:56:43.787Z,1.4
2023-02-15T00:57:39.968Z,1.4
2023-02-15T00:58:40.020Z,1.4
2023-02-15T00:59:40.121Z,1.4
2023-02-15T01:00:40.168Z,1.3
2023-02-15T01:01:40.540Z,1.2
2023-02-15T01:02:40.333Z,1.4
2023-02-15T01:03:40.400Z,1.3
2023-02-15T01:04:40.511Z,1.3
2023-02-15T01:05:40.562Z,1.5
2023-02-15T01:06:40.633Z,1.5
2023-02-15T01:07:40.696Z,1.4
2023-02-15T01:08:42.495Z,1.3
2023-02-15T01:09:40.820Z,1.2
2023-02-15T01:10:41.525Z,1.2
2023-02-15T01:11:40.966Z,1.2
2023-02-15T01:12:41.701Z,1.3
2023-02-15T01:13:41.124Z,1.3
2023-02-15T01:14:41.325Z,1.3
2023-02-15T01:15:43.713Z,1.3
2023-02-15T01:16:41.355Z,1.3
2023-02-15T01:17:41.468Z,1.2
2023-02-15T01:18:41.502Z,1.1
2023-02-15T01:19:41.589Z,1
2023-02-15T01:20:41.733Z,1
2023-02-15T01:21:41.734Z,1.1
2023-02-15T01:22:41.920Z,1.1
2023-02-15T01:23:41.888Z,1.2
2023-02-15T01:24:42.027Z,1.2
2023-02-15T01:25:42.035Z,1.1
2023-02-15T01:26:42.173Z,1.1
2023-02-15T01:27:42.215Z,1.1
2023-02-15T01:28:42.413Z,1
2023-02-15T01:29:42.355Z,1.1
2023-02-15T01:30:42.502Z,1
2023-02-15T01:31:46.618Z,1
2023-02-15T01:32:51.199Z,0.9
2023-02-15T01:33:49.651Z,1
2023-02-15T01:35:18.126Z,0.9
2023-02-15T01:35:44.831Z,1
2023-02-15T01:36:50.866Z,1
2023-02-15T01:38:21.859Z,1
2023-02-15T01:38:45.863Z,0.9
2023-02-15T01:39:44.631Z,0.9
2023-02-15T01:40:46.094Z,0.9
2023-02-15T01:41:44.536Z,0.9
2023-02-15T01:42:46.197Z,0.9
2023-02-15T01:43:46.363Z,1
2023-02-15T01:44:47.747Z,1
2023-02-15T01:45:44.653Z,0.9
2023-02-15T01:46:47.542Z,0.9
2023-02-15T01:47:45.296Z,0.8
2023-02-15T01:48:46.292Z,0.8
2023-02-15T01:49:44.627Z,0.8
2023-02-15T01:50:46.310Z,0.9
2023-02-15T01:51:45.694Z,0.9
2023-02-15T01:52:46.040Z,0.9
2023-02-15T01:53:44.755Z,0.9
2023-02-15T01:54:47.177Z,0.8
2023-02-15T01:55:44.728Z,0.9
2023-02-15T01:56:47.458Z,0.9
2023-02-15T01:57:45.868Z,0.8
2023-02-15T01:58:46.016Z,0.8
2023-02-15T01:59:44.952Z,0.8
2023-02-15T02:00:46.970Z,0.7
2023-02-15T02:01:46.691Z,0.8
2023-02-15T02:02:47.583Z,0.8
2023-02-15T02:03:44.779Z,0.8
2023-02-15T02:04:46.715Z,0.7
2023-02-15T02:05:44.826Z,0.8
2023-02-15T02:06:51.037Z,0.8
2023-02-15T02:07:44.953Z,0.8
2023-02-15T02:08:50.828Z,0.8
2023-02-15T02:09:45.104Z,0.7
2023-02-15T02:10:47.421Z,0.7
2023-02-15T02:11:45.277Z,0.8
2023-02-15T02:12:51.031Z,0.7
2023-02-15T02:13:45.400Z,0.8
2023-02-15T02:14:46.789Z,0.8
2023-02-15T02:15:45.629Z,0.6
2023-02-15T02:16:46.971Z,0.6
2023-02-15T02:17:45.677Z,0.6
2023-02-15T02:18:47.622Z,0.5
2023-02-15T02:19:45.844Z,0.5
2023-02-15T02:20:51.571Z,0.5
2023-02-15T02:21:45.980Z,0.6
2023-02-15T02:22:48.079Z,0.6
2023-02-15T02:23:46.685Z,0.6
2023-02-15T02:24:46.360Z,0.7
2023-02-15T02:25:46.332Z,0.6
2023-02-15T02:26:52.695Z,0.5
2023-02-15T02:27:46.440Z,0.5
2023-02-15T02:28:47.174Z,0.7
2023-02-15T02:29:46.604Z,0.6
2023-02-15T02:30:47.704Z,0.6
2023-02-15T02:31:47.715Z,0.6
2023-02-15T02:32:56.141Z,0.7
2023-02-15T02:33:46.901Z,0.6
2023-02-15T02:34:49.762Z,0.6
2023-02-15T02:35:47.036Z,0.6
2023-02-15T02:36:58.515Z,0.5
2023-02-15T02:37:47.151Z,0.6
2023-02-15T02:38:57.611Z,0.6
2023-02-15T02:39:47.327Z,0.6
2023-02-15T05:37:10.397Z,-0.4
2023-02-15T05:37:14.759Z,-0.3
2023-02-15T05:38:11.821Z,-0.3
2023-02-15T05:39:11.911Z,-0.3
2023-02-15T05:40:12.017Z,-0.2
2023-02-15T05:41:12.082Z,-0.2
2023-02-15T05:42:12.188Z,-0.2
2023-02-15T05:43:25.976Z,-0.3
2023-02-15T05:44:20.928Z,-0.3
2023-02-15T05:45:28.593Z,-0.2
2023-02-15T05:46:27.472Z,-0.3
2023-02-15T05:47:37.790Z,-0.3
2023-02-15T05:48:12.644Z,-0.4
2023-02-15T05:49:28.610Z,-0.3
2023-02-15T05:50:12.844Z,-0.3
2023-02-15T05:51:32.709Z,-0.2
2023-02-15T05:52:34.431Z,-0.2
2023-02-15T05:53:25.929Z,-0.2
2023-02-15T05:54:13.135Z,-0.2
2023-02-15T05:55:35.597Z,-0.2
2023-02-15T05:56:13.309Z,-0.1
2023-02-15T05:57:44.257Z,-0.2
2023-02-15T05:58:35.263Z,-0.3
2023-02-15T05:59:27.138Z,-0.3
2023-02-15T06:00:13.637Z,-0.2
2023-02-15T06:01:37.998Z,-0.2
2023-02-15T06:02:13.815Z,-0.1
2023-02-15T06:03:13.959Z,-0.3
2023-02-15T06:04:35.446Z,-0.3
2023-02-15T06:05:13.999Z,-0.3
2023-02-15T06:06:14.097Z,-0.2
2023-02-15T06:07:16.304Z,-0.2
2023-02-15T06:08:14.308Z,-0.1
2023-02-15T06:09:14.384Z,-0.2
2023-02-15T06:10:38.680Z,-0.2
2023-02-15T06:11:14.538Z,-0.3
2023-02-15T06:12:14.586Z,-0.2
2023-02-15T06:13:39.014Z,-0.2
2023-02-15T06:14:14.768Z,-0.2
2023-02-15T06:15:14.842Z,-0.2
2023-02-15T06:16:39.585Z,-0.2
2023-02-15T06:17:14.986Z,0
2023-02-15T06:18:15.095Z,0
2023-02-15T06:19:38.335Z,-0.1
2023-02-15T06:20:15.255Z,-0.1
2023-02-15T06:21:15.317Z,-0.1
2023-02-15T06:22:38.854Z,-0.1
2023-02-15T06:23:15.533Z,-0.1
2023-02-15T06:24:15.616Z,-0.1
2023-02-15T06:25:39.974Z,-0.2
2023-02-15T06:26:15.757Z,-0.2
2023-02-15T06:27:15.799Z,-0.2
2023-02-15T06:28:43.955Z,-0.3
2023-02-15T06:29:15.994Z,-0.3
2023-02-15T06:30:16.102Z,-0.2
2023-02-15T06:31:37.484Z,-0.2
2023-02-15T06:32:16.230Z,-0.2
2023-02-15T06:33:16.275Z,-0.3
2023-02-15T06:34:37.774Z,-0.2
2023-02-15T06:35:16.424Z,-0.1
2023-02-15T06:36:16.446Z,-0.2
2023-02-15T06:37:20.379Z,-0.3
2023-02-15T06:38:23.991Z,-0.3
2023-02-15T06:39:16.632Z,-0.4
2023-02-15T06:40:24.035Z,-0.4
2023-02-15T06:41:16.779Z,-0.4
2023-02-15T06:42:23.485Z,-0.3
2023-02-15T06:43:16.929Z,-0.2
2023-02-15T06:44:25.473Z,-0.4
2023-02-15T06:45:17.089Z,-0.4
2023-02-15T06:46:24.889Z,-0.3
2023-02-15T06:47:17.209Z,-0.2
2023-02-15T06:48:26.352Z,-0.3
2023-02-15T06:49:17.398Z,-0.4
2023-02-15T06:50:24.960Z,-0.3
2023-02-15T06:51:17.547Z,-0.4
2023-02-15T06:52:22.840Z,-0.4
2023-02-15T06:53:17.704Z,-0.3
2023-02-15T06:54:25.807Z,-0.3
2023-02-15T06:55:17.877Z,-0.3
2023-02-15T06:56:22.946Z,-0.3
2023-02-15T06:57:18.030Z,-0.2
2023-02-15T06:58:23.072Z,-0.3
2023-02-15T06:59:18.193Z,-0.3
2023-02-15T07:00:24.287Z,-0.2
2023-02-15T07:01:18.362Z,-0.2
2023-02-15T07:02:23.555Z,0
2023-02-15T07:03:18.514Z,0
2023-02-15T07:04:27.932Z,-0.1
2023-02-15T07:05:18.720Z,-0.1
2023-02-15T07:06:25.095Z,-0.2
2023-02-15T07:07:18.833Z,-0.2
2023-02-15T07:08:23.132Z,-0.2
2023-02-15T07:09:18.993Z,-0.1
2023-02-15T07:10:23.213Z,0
2023-02-15T07:11:19.140Z,-0.1
2023-02-15T07:12:28.294Z,-0.1
2023-02-15T07:13:19.332Z,-0.1
2023-02-15T07:14:24.832Z,0
2023-02-15T07:15:19.482Z,0.1
2023-02-15T07:16:24.924Z,0.1
2023-02-15T07:17:35.705Z,0.2
2023-02-15T07:18:23.811Z,0.2
2023-02-15T07:19:19.810Z,0.3
2023-02-15T07:20:24.114Z,0.4
2023-02-15T07:21:19.954Z,0.4
2023-02-15T07:22:25.416Z,0.5
2023-02-15T07:23:20.080Z,0.6
2023-02-15T07:24:23.927Z,0.6
2023-02-15T07:25:20.239Z,0.6
2023-02-15T07:26:23.748Z,0.7
2023-02-15T07:27:20.374Z,0.7
2023-02-15T07:28:24.309Z,0.8
2023-02-15T07:29:20.504Z,0.7
2023-02-15T07:30:26.768Z,0.8
2023-02-15T07:31:20.722Z,1
2023-02-15T07:32:23.982Z,0.8
2023-02-15T07:33:20.716Z,0.9
2023-02-15T07:34:23.859Z,0.9
2023-02-15T07:35:23.543Z,0.9
2023-02-15T07:36:23.697Z,1
2023-02-15T07:37:22.361Z,1.1
2023-02-15T07:38:27.355Z,1.3
2023-02-15T07:39:20.995Z,1.1
2023-02-15T07:40:29.157Z,0.9
2023-02-15T07:41:21.140Z,1.1
2023-02-15T07:42:27.135Z,1.1
2023-02-15T07:43:21.267Z,1.1
2023-02-15T07:44:29.379Z,1.1
2023-02-15T07:45:21.372Z,1.2
2023-02-15T07:46:27.619Z,1.2
2023-02-15T07:47:25.168Z,1.3
2023-02-15T07:48:27.062Z,1.3
2023-02-15T07:49:22.279Z,1.3
2023-02-15T07:50:29.242Z,1.4
2023-02-15T07:51:22.214Z,1.4
2023-02-15T07:52:26.922Z,1.4
2023-02-15T07:53:22.253Z,1.4
2023-02-15T07:54:27.170Z,1.5
2023-02-15T07:55:22.283Z,1.5
2023-02-15T07:56:26.939Z,1.5
2023-02-15T07:57:25.719Z,1.4
2023-02-15T07:58:26.992Z,1.5
2023-02-15T07:59:23.476Z,1.6
2023-02-15T08:00:26.945Z,1.7
2023-02-15T08:01:22.526Z,1.9
2023-02-15T08:02:28.646Z,1.8
2023-02-15T08:03:23.794Z,1.8
2023-02-15T08:04:29.454Z,1.8
2023-02-15T08:05:22.867Z,1.8
2023-02-15T08:06:27.427Z,1.9
2023-02-15T08:07:27.344Z,2.1
2023-02-15T08:08:27.093Z,2.1
2023-02-15T08:09:25.713Z,1.9
2023-02-15T08:10:29.795Z,1.8
2023-02-15T08:11:25.303Z,1.8
2023-02-15T08:12:27.781Z,1.9
2023-02-15T08:13:25.393Z,2.1
2023-02-15T08:14:29.492Z,2.1
2023-02-15T08:15:24.941Z,2.2
2023-02-15T08:16:30.295Z,2.2
2023-02-15T08:17:32.067Z,2.2
2023-02-15T08:18:29.425Z,2.3
2023-02-15T08:19:27.322Z,2.2
2023-02-15T08:20:28.247Z,2.1
2023-02-15T08:21:27.422Z,2.2
2023-02-15T08:22:27.496Z,2.2
2023-02-15T08:23:27.542Z,2.3
2023-02-15T08:24:34.299Z,2.4
2023-02-15T08:25:27.633Z,2.3
2023-02-15T08:26:38.555Z,2.3
2023-02-15T08:27:27.746Z,2.3
2023-02-15T08:28:32.513Z,2.3
2023-02-15T08:29:27.796Z,2.3
2023-02-15T08:30:34.481Z,2.3
2023-02-15T08:31:28.105Z,2.4
2023-02-15T08:32:33.260Z,2.5
2023-02-15T08:33:28.107Z,2.8
2023-02-15T08:34:33.444Z,2.7
2023-02-15T08:35:28.230Z,2.8
2023-02-15T08:36:32.534Z,2.8
2023-02-15T08:37:28.385Z,2.9
2023-02-15T08:38:33.578Z,2.8
2023-02-15T08:39:28.529Z,3.1
2023-02-15T08:40:32.799Z,3.1
2023-02-15T08:41:28.688Z,3.1
2023-02-15T08:42:32.364Z,3.1
2023-02-15T08:43:28.872Z,3.2
2023-02-15T08:44:32.456Z,3.2
2023-02-15T08:45:29.046Z,3.5
2023-02-15T08:46:34.688Z,3.3
2023-02-15T08:47:29.288Z,3.4
2023-02-15T08:48:45.585Z,3.4
2023-02-15T08:50:33.108Z,3.2
2023-02-15T08:51:32.061Z,3.3
2023-02-15T08:52:32.305Z,3.4
2023-02-15T08:53:32.235Z,3.5
2023-02-15T08:54:32.387Z,3.5
2023-02-15T08:55:32.364Z,3.5
2023-02-15T08:56:32.614Z,3.6
2023-02-15T08:57:32.474Z,3.4
2023-02-15T08:58:33.819Z,3.5
2023-02-15T08:59:32.602Z,3.7
2023-02-15T09:00:33.093Z,3.7
2023-02-15T09:01:32.779Z,3.8
2023-02-15T09:02:38.230Z,3.8
2023-02-15T09:03:32.866Z,3.9
2023-02-15T09:04:33.525Z,3.7
2023-02-15T09:05:32.994Z,3.6
2023-02-15T09:06:33.424Z,3.7
2023-02-15T09:07:33.151Z,3.7
2023-02-15T09:08:33.479Z,3.8
2023-02-15T09:09:33.280Z,3.9
2023-02-15T09:10:33.365Z,4
2023-02-15T09:11:33.458Z,4.2
2023-02-15T09:12:33.512Z,4.1
2023-02-15T09:13:33.604Z,4.2
2023-02-15T09:14:33.664Z,3.9
2023-02-15T09:15:33.746Z,4
2023-02-15T09:16:33.862Z,4.2
2023-02-15T09:17:33.897Z,4.2
2023-02-15T09:18:34.106Z,4.1
2023-02-15T09:19:34.039Z,4.2
2023-02-15T09:20:34.170Z,4.2
2023-02-15T09:21:34.195Z,4.1
2023-02-15T09:22:34.325Z,4.2
2023-02-15T09:23:34.341Z,4.4
2023-02-15T09:24:34.447Z,4.4
2023-02-15T09:25:34.639Z,4.5
2023-02-15T09:26:34.619Z,4.3
2023-02-15T09:27:34.675Z,4.4
2023-02-15T09:28:34.782Z,4.5
2023-02-15T09:29:34.856Z,4.5
2023-02-15T09:30:35.067Z,4.5
2023-02-15T09:31:35.263Z,4.7
2023-02-15T09:32:35.158Z,4.9
2023-02-15T09:33:35.205Z,4.8
2023-02-15T09:34:35.257Z,4.8
2023-02-15T09:35:35.343Z,4.7
2023-02-15T09:36:35.505Z,4.8
2023-02-15T09:37:44.420Z,5
2023-02-15T09:38:35.613Z,5.1
2023-02-15T09:39:35.700Z,5.2
2023-02-15T09:41:05.253Z,5.1
2023-02-15T09:41:35.880Z,5.2
2023-02-15T09:42:35.935Z,5.3
2023-02-15T09:44:05.327Z,5.3
2023-02-15T09:44:36.107Z,5.3
2023-02-15T09:45:36.234Z,5.2
2023-02-15T09:47:06.696Z,5.2
2023-02-15T09:47:36.373Z,5.3
2023-02-15T09:48:36.480Z,5.3
2023-02-15T09:50:05.207Z,5.4
2023-02-15T09:50:36.906Z,5.5
2023-02-15T09:51:36.730Z,5.6
2023-02-15T09:53:07.349Z,5.7
2023-02-15T09:53:36.890Z,5.9
2023-02-15T09:54:36.941Z,5.8
2023-02-15T09:56:06.445Z,5.7
2023-02-15T09:56:37.119Z,5.8
2023-02-15T09:57:37.236Z,5.9
2023-02-15T09:59:08.700Z,6.1
2023-02-15T09:59:37.384Z,6.2
2023-02-15T10:00:37.445Z,6.5
2023-02-15T10:02:06.836Z,6.5
2023-02-15T10:02:37.637Z,6.4
2023-02-15T10:03:37.768Z,6.3
2023-02-15T10:05:06.463Z,6.4
2023-02-15T10:05:37.896Z,6.5
2023-02-15T10:06:37.940Z,6.7
2023-02-15T10:08:07.601Z,7
2023-02-15T10:08:38.111Z,7
2023-02-15T10:09:38.162Z,6.6
2023-02-15T10:11:06.306Z,6.6
2023-02-15T10:11:38.290Z,6.7
2023-02-15T10:12:38.347Z,6.8
2023-02-15T10:14:07.226Z,6.8
2023-02-15T10:14:38.465Z,7.2
2023-02-15T10:15:38.551Z,7.2
2023-02-15T10:17:08.842Z,7.5
2023-02-15T10:17:38.731Z,7.8
2023-02-15T10:18:38.797Z,7.5
2023-02-15T10:20:07.096Z,7.4
2023-02-15T10:20:38.939Z,7.3
2023-02-15T10:21:39.094Z,7.2
2023-02-15T10:23:06.544Z,7.3
2023-02-15T10:23:39.207Z,7.7
2023-02-15T10:24:40.986Z,7.6
2023-02-15T10:26:06.639Z,7.6
2023-02-15T10:26:39.400Z,7.7
2023-02-15T10:27:39.540Z,7.8
2023-02-15T10:29:05.526Z,7.5
2023-02-15T10:29:39.642Z,7.5
2023-02-15T10:30:40.092Z,7.6
2023-02-15T10:32:06.812Z,7.5
2023-02-15T10:32:39.888Z,7.8
2023-02-15T10:33:39.967Z,8
2023-02-15T10:34:45.774Z,8.3
2023-02-15T10:35:40.129Z,8.2
2023-02-15T10:36:40.216Z,8
2023-02-15T10:38:06.686Z,7.8
2023-02-15T10:38:40.399Z,8.2
2023-02-15T10:39:40.478Z,8.2
2023-02-15T10:41:02.497Z,8.2
2023-02-15T10:41:40.636Z,8.3
2023-02-15T10:42:40.706Z,8.5
2023-02-15T10:43:53.916Z,8.9
2023-02-15T10:44:40.846Z,9.3
2023-02-15T10:45:40.935Z,9.3
2023-02-15T10:47:07.588Z,9
2023-02-15T10:47:41.140Z,8.9
2023-02-15T10:48:41.221Z,8.8
2023-02-15T10:50:07.999Z,9
2023-02-15T10:50:41.366Z,9.2
2023-02-15T10:51:41.450Z,9.4
2023-02-15T10:53:09.884Z,9.5
2023-02-15T10:53:41.588Z,9.4
2023-02-15T10:54:41.660Z,9.3
2023-02-15T10:56:09.866Z,9.3
2023-02-15T10:56:41.851Z,9.1
2023-02-15T10:57:41.966Z,9
2023-02-15T10:59:11.667Z,9
2023-02-15T10:59:42.104Z,9.3
2023-02-15T11:00:42.186Z,9.2
2023-02-15T11:02:10.046Z,9.2
2023-02-15T11:02:42.340Z,9.3
2023-02-15T11:03:42.505Z,9.5
2023-02-15T11:05:10.013Z,9.6
2023-02-15T11:05:42.632Z,9.6
2023-02-15T11:06:42.695Z,9.4
2023-02-15T11:08:13.054Z,9.3
2023-02-15T11:08:42.868Z,9.3
2023-02-15T11:09:42.912Z,9
2023-02-15T11:11:10.612Z,9.1
2023-02-15T11:11:43.111Z,9.2
2023-02-15T11:12:43.181Z,9.3
2023-02-15T11:14:09.822Z,9.9
2023-02-15T11:14:43.341Z,10.3
2023-02-15T11:15:43.469Z,10.1
2023-02-15T11:17:10.158Z,9.8
2023-02-15T11:17:43.557Z,10
2023-02-15T11:18:43.637Z,9.7
2023-02-15T11:20:09.871Z,9.7
2023-02-15T11:20:43.727Z,9.6
2023-02-15T11:21:43.796Z,9.8
2023-02-15T11:23:10.754Z,9.8
2023-02-15T11:23:43.958Z,9.8
2023-02-15T11:24:44.029Z,10
2023-02-15T11:26:14.117Z,9.9
2023-02-15T11:26:44.127Z,10.1
2023-02-15T11:27:45.576Z,9.9
2023-02-15T11:29:11.867Z,9.9
2023-02-15T11:29:44.344Z,9.7
2023-02-15T11:30:44.482Z,9.7
2023-02-15T11:31:48.851Z,9.7
2023-02-15T11:32:46.573Z,9.7
2023-02-15T11:33:44.723Z,9.6
2023-02-15T11:34:46.457Z,9.7
2023-02-15T11:35:44.833Z,10.1
2023-02-15T11:36:46.444Z,10.3
2023-02-15T11:37:44.979Z,10.5
2023-02-15T11:38:51.858Z,10.3
2023-02-15T11:39:45.125Z,10
2023-02-15T11:40:47.675Z,10
2023-02-15T11:41:45.296Z,10.1
2023-02-15T11:42:48.719Z,10.5
2023-02-15T11:43:45.446Z,10.5
2023-02-15T11:44:47.198Z,10.3
2023-02-15T11:45:45.620Z,10.1
2023-02-15T11:46:45.873Z,10.3
2023-02-15T11:47:45.793Z,10.4
2023-02-15T11:48:46.298Z,10.5
2023-02-15T11:49:45.942Z,10.7
2023-02-15T11:50:48.753Z,10.7
2023-02-15T11:51:48.822Z,10.5
2023-02-15T11:52:49.182Z,10.7
2023-02-15T11:53:48.959Z,10.7
2023-02-15T11:54:49.110Z,10.6
2023-02-15T11:56:09.255Z,10.9
2023-02-15T11:56:49.260Z,11
2023-02-15T11:57:49.258Z,11
2023-02-15T11:59:08.649Z,11.1
2023-02-15T11:59:49.436Z,11.4
2023-02-15T12:00:49.497Z,11.2
2023-02-15T12:02:21.770Z,11.2
2023-02-15T12:02:49.723Z,10.8
2023-02-15T12:03:49.810Z,10.8
2023-02-15T12:05:24.019Z,10.9
2023-02-15T12:05:49.837Z,11
2023-02-15T12:06:49.895Z,11.3
2023-02-15T12:08:24.958Z,11.4
2023-02-15T12:08:51.550Z,11.2
2023-02-15T12:09:50.048Z,11.3
2023-02-15T12:10:50.086Z,11.1
2023-02-15T12:11:50.118Z,10.9
2023-02-15T12:12:50.170Z,11
2023-02-15T12:13:50.208Z,11.1
2023-02-15T12:14:55.272Z,11.2
2023-02-15T12:15:50.405Z,11.3
2023-02-15T12:16:56.968Z,11.3
2023-02-15T12:17:57.002Z,11.1
2023-02-15T12:18:57.919Z,10.9
2023-02-15T12:19:50.643Z,11.1
2023-02-15T12:21:11.910Z,11.6
2023-02-15T12:21:50.764Z,11.1
2023-02-15T12:23:18.354Z,11.1
2023-02-15T12:24:06.487Z,10.9
2023-02-15T12:25:20.654Z,10.9
2023-02-15T12:25:51.054Z,11.2
2023-02-15T12:27:11.213Z,11.1
2023-02-15T12:28:05.330Z,11
2023-02-15T12:29:30.440Z,11
2023-02-15T12:30:28.763Z,11
2023-02-15T12:31:28.746Z,11
2023-02-15T12:31:51.614Z,11.1
2023-02-15T12:33:37.484Z,11.2
2023-02-15T12:34:25.242Z,11.4
2023-02-15T12:34:51.652Z,11.5
2023-02-15T12:37:59.491Z,11.6
2023-02-15T12:38:51.918Z,11.4
2023-02-15T12:39:52.844Z,11.8
2023-02-15T12:40:52.038Z,11.6
2023-02-15T12:41:52.691Z,11.5
2023-02-15T12:42:52.188Z,11.4
2023-02-15T12:43:52.827Z,11.5
2023-02-15T12:44:52.369Z,11.8
2023-02-15T12:45:52.488Z,11.8
2023-02-15T12:46:52.529Z,12.1
2023-02-15T12:47:53.351Z,11.8
2023-02-15T12:48:52.676Z,11.9
2023-02-15T12:49:52.824Z,11.9
2023-02-15T12:50:55.854Z,11.8
2023-02-15T12:51:52.929Z,11.8
2023-02-15T12:52:52.963Z,11.8
2023-02-15T12:53:53.291Z,11.8
2023-02-15T12:54:53.129Z,11.5
2023-02-15T12:55:53.563Z,11.8
2023-02-15T12:56:53.206Z,11.9
2023-02-15T12:57:53.333Z,11.9
2023-02-15T12:58:53.374Z,11.9
2023-02-15T12:59:53.455Z,11.9
2023-02-15T13:00:53.610Z,12
2023-02-15T13:01:53.746Z,12
2023-02-15T13:02:53.675Z,11.7
2023-02-15T13:03:53.885Z,11.6
2023-02-15T13:04:54.033Z,11.9
2023-02-15T13:05:55.185Z,11.7
2023-02-15T13:06:53.948Z,11.6
2023-02-15T13:07:54.361Z,11.6
2023-02-15T13:08:54.138Z,12
2023-02-15T13:09:54.276Z,12.2
2023-02-15T13:10:55.019Z,12.3
2023-02-15T13:11:54.694Z,12.5
2023-02-15T13:12:54.398Z,12.6
2023-02-15T13:14:02.298Z,12.6
2023-02-15T13:14:54.511Z,12.6
2023-02-15T13:15:55.345Z,12.3
2023-02-15T13:16:57.295Z,12.3
2023-02-15T13:17:55.646Z,12.4
2023-02-15T13:18:54.964Z,12.4
2023-02-15T13:19:56.273Z,12.2
2023-02-15T13:20:54.953Z,12.2
2023-02-15T13:21:55.773Z,12
2023-02-15T13:22:57.676Z,11.7
2023-02-15T13:23:55.285Z,11.9
2023-02-15T13:24:55.245Z,11.7
2023-02-15T13:25:56.862Z,11.7
2023-02-15T13:27:01.088Z,11.5
2023-02-15T13:27:55.683Z,11.4
2023-02-15T13:28:57.135Z,11.7
2023-02-15T13:29:55.672Z,11.7
2023-02-15T13:30:55.762Z,12
2023-02-15T13:31:57.625Z,11.9
2023-02-15T13:32:55.884Z,11.9
2023-02-15T13:33:55.908Z,11.9
2023-02-15T13:34:55.989Z,11.8
2023-02-15T13:35:56.052Z,11.8
2023-02-15T13:36:56.158Z,11.4
2023-02-15T13:37:57.266Z,11.7
2023-02-15T13:38:56.257Z,11.9
2023-02-15T13:39:56.359Z,11.8
2023-02-15T13:40:57.877Z,11.9
2023-02-15T13:41:56.434Z,11.9
2023-02-15T13:42:56.541Z,12.1
2023-02-15T13:43:56.844Z,11.9
2023-02-15T13:44:56.654Z,12.1
2023-02-15T13:45:56.772Z,12.1
2023-02-15T13:46:58.710Z,11.9
2023-02-15T13:47:57.053Z,11.8
2023-02-15T13:49:11.917Z,11.7
2023-02-15T13:49:57.682Z,12
2023-02-15T13:50:57.203Z,12.2
2023-02-15T13:51:57.579Z,12.2
2023-02-15T13:52:57.245Z,11.9
2023-02-15T13:53:57.950Z,11.7
2023-02-15T13:54:57.378Z,11.7
2023-02-15T13:55:58.535Z,11.8
2023-02-15T13:56:57.444Z,11.8
2023-02-15T13:57:58.243Z,11.8
2023-02-15T13:58:59.466Z,11.6
2023-02-15T13:59:58.909Z,11.5
2023-02-15T14:00:57.874Z,11.5
2023-02-15T14:01:59.804Z,11.5
2023-02-15T14:02:58.937Z,11.6
2023-02-15T14:03:57.962Z,11.6
2023-02-15T14:04:58.039Z,11.6
2023-02-15T14:05:58.058Z,11.5
2023-02-15T14:06:58.127Z,11.4
2023-02-15T14:07:59.078Z,11.4
2023-02-15T14:08:58.257Z,11.4
2023-02-15T14:09:58.368Z,11.4
2023-02-15T14:10:58.437Z,11.4
2023-02-15T14:11:58.567Z,11.2
2023-02-15T14:12:58.635Z,11.2
2023-02-15T14:13:58.726Z,11.2
2023-02-15T14:14:58.774Z,11.2
2023-02-15T14:15:58.839Z,11.2
2023-02-15T14:17:06.487Z,11.2
2023-02-15T14:17:59.098Z,11.1
2023-02-15T14:18:59.031Z,11.2
2023-02-15T14:19:59.149Z,11.1
2023-02-15T14:20:59.194Z,11.2
2023-02-15T14:21:59.288Z,11.2
2023-02-15T14:23:01.097Z,11.2
2023-02-15T14:23:59.406Z,11.1
2023-02-15T14:24:59.522Z,11.1
2023-02-15T14:25:59.555Z,11.2
2023-02-15T14:26:59.681Z,11.2
2023-02-15T14:27:59.745Z,11
2023-02-15T14:28:59.831Z,11
2023-02-15T14:29:59.980Z,11
2023-02-15T14:31:00.346Z,11.1
2023-02-15T14:32:00.208Z,10.8
2023-02-15T14:33:00.164Z,10.9
2023-02-15T14:34:00.286Z,11
2023-02-15T14:35:00.348Z,10.9
2023-02-15T14:36:00.506Z,10.9
2023-02-15T14:37:00.651Z,10.9
2023-02-15T14:38:01.088Z,10.9
2023-02-15T14:39:00.731Z,10.9
2023-02-15T14:40:00.769Z,10.9
2023-02-15T14:41:01.355Z,10.8
2023-02-15T14:42:00.996Z,10.7
2023-02-15T14:43:01.038Z,10.6
2023-02-15T14:44:04.080Z,10.5
2023-02-15T14:45:26.393Z,10.6
2023-02-15T14:46:01.350Z,10.5
2023-02-15T14:47:01.386Z,10.5
2023-02-15T14:48:07.644Z,10.5
2023-02-15T14:49:19.947Z,10.6
2023-02-15T14:50:01.680Z,10.6
2023-02-15T14:51:04.908Z,10.5
2023-02-15T14:52:14.871Z,10.4
2023-02-15T14:53:01.913Z,10.5
2023-02-15T14:54:01.969Z,10.3
2023-02-15T14:55:02.018Z,10.2
2023-02-15T14:56:02.108Z,10.1
2023-02-15T14:57:02.254Z,10.2
2023-02-15T14:58:19.032Z,10.2
2023-02-15T14:59:02.350Z,10.1
2023-02-15T15:00:02.404Z,10
2023-02-15T15:01:02.731Z,9.9
2023-02-15T15:02:02.790Z,9.9
2023-02-15T15:03:02.588Z,9.9
2023-02-15T15:04:20.446Z,9.9
2023-02-15T15:05:02.776Z,9.9
2023-02-15T15:06:05.576Z,9.7
2023-02-15T15:07:02.971Z,9.7
2023-02-15T15:08:03.037Z,9.8
2023-02-15T15:09:03.131Z,9.9
2023-02-15T15:10:07.331Z,9.9
2023-02-15T15:11:03.251Z,9.8
2023-02-15T15:12:03.344Z,9.8
2023-02-15T15:13:03.645Z,9.8
2023-02-15T15:14:03.524Z,9.7
2023-02-15T15:15:03.594Z,9.8
2023-02-15T15:16:24.122Z,9.9
2023-02-15T15:17:03.784Z,9.7
2023-02-15T15:18:09.269Z,9.7
2023-02-15T15:19:03.917Z,9.7
2023-02-15T15:20:09.981Z,9.7
2023-02-15T15:21:04.069Z,9.6
2023-02-15T15:22:10.492Z,9.6
2023-02-15T15:23:04.211Z,9.6
2023-02-15T15:24:10.681Z,9.6
2023-02-15T15:25:04.379Z,9.6
2023-02-15T15:26:10.665Z,9.4
2023-02-15T15:27:06.712Z,9.3
2023-02-15T15:28:25.909Z,9.4
2023-02-15T15:29:04.837Z,9.4
2023-02-15T15:30:15.027Z,9.5
2023-02-15T15:31:05.000Z,9.4
2023-02-15T15:32:05.520Z,9.4
2023-02-15T15:33:05.003Z,9.4
2023-02-15T15:34:05.330Z,9.4
2023-02-15T15:35:05.173Z,9.4
2023-02-15T15:36:05.181Z,9.4
2023-02-15T15:37:05.160Z,9.4
2023-02-15T15:38:05.398Z,9.3
2023-02-15T15:39:05.332Z,9.3
2023-02-15T15:40:16.837Z,9.1
2023-02-15T15:41:05.392Z,9.1
2023-02-15T15:42:09.609Z,9.2
2023-02-15T15:43:10.691Z,9.1
2023-02-15T15:44:07.756Z,9.2
2023-02-15T15:45:05.920Z,9.2
2023-02-15T15:46:57.787Z,9.1
2023-02-15T15:48:01.918Z,9.2
2023-02-15T15:48:39.820Z,9.2
2023-02-15T15:49:30.939Z,9.1
2023-02-15T15:50:17.770Z,8.9
2023-02-15T15:51:06.230Z,9
2023-02-15T15:52:27.853Z,9
2023-02-15T15:53:06.336Z,9
2023-02-15T15:54:06.522Z,8.9
2023-02-15T15:55:19.019Z,8.8
2023-02-15T15:56:07.618Z,8.7
2023-02-15T15:57:15.782Z,8.8
2023-02-15T15:58:45.055Z,8.8
2023-02-15T15:59:20.111Z,8.9
2023-02-15T16:00:07.064Z,8.8
2023-02-15T16:01:13.614Z,8.8
2023-02-15T16:02:08.222Z,8.8
2023-02-15T16:03:07.438Z,8.8
2023-02-15T16:04:29.568Z,8.9
2023-02-15T16:05:07.355Z,8.8
2023-02-15T16:06:48.711Z,8.7
2023-02-15T16:08:08.474Z,8.6
2023-02-15T16:09:02.082Z,8.6
2023-02-15T16:09:37.803Z,8.8
2023-02-15T16:10:45.224Z,8.7
2023-02-15T16:11:44.698Z,8.5
2023-02-15T16:12:27.754Z,8.4
2023-02-15T16:13:35.451Z,8.5
2023-02-15T16:14:20.443Z,8.5
2023-02-15T16:15:07.958Z,8.5
2023-02-15T16:16:16.704Z,8.5
2023-02-15T16:17:08.111Z,8.5
2023-02-15T16:18:08.245Z,8.5
2023-02-15T16:19:33.434Z,8.6
2023-02-15T16:20:08.429Z,8.5
2023-02-15T16:21:08.455Z,8.4
2023-02-15T16:22:31.066Z,8.4
2023-02-15T16:23:08.628Z,8.4
2023-02-15T16:24:08.734Z,8.5
2023-02-15T16:25:30.389Z,8.4
2023-02-15T16:26:08.852Z,8.4
2023-02-15T16:27:08.979Z,8.3
2023-02-15T16:28:27.244Z,8.3
2023-02-15T16:29:09.070Z,8.2
2023-02-15T16:30:09.920Z,8.3
2023-02-15T16:31:29.215Z,8.3
2023-02-15T16:32:09.437Z,8.2
2023-02-15T16:33:09.407Z,8.2
2023-02-15T16:34:09.738Z,8.2
2023-02-15T16:35:09.588Z,8.3
2023-02-15T16:36:09.673Z,8.3
2023-02-15T16:37:11.674Z,8.2
2023-02-15T16:38:14.814Z,8.2
2023-02-15T16:39:09.951Z,8